Flight Track Log - Related Links

Times and Time Zones

All times are in EDT time to prevent confusion due to time zone crossing. See the GJS3615 flight status page for this flight to view local times or setup timezone preferences in your user account.

Time Position Orientation Groundspeed Altitude Reporting Facility
EDT Latitude Longitude Course Direction KTS MPH feet Rate Location/Type
Fri 10:27:17 AM 41.9167 -87.8833 166° South 213 245 3,300  Level Chicago TRACON
Fri 10:28:57 AM 41.8231 -87.7967 145° Southeast 249 287 5,000 1,141 Climbing Chicago Center
Fri 10:29:00 AM 41.7743 -87.5872 159° South  Level Estimated
Fri 10:30:00 AM 41.7050 -87.4811 153° Southeast  Level Estimated
Fri 10:30:00 AM 41.7567 -87.7489 152° Southeast 270 311 6,400  Level Chicago Center
Fri 10:31:00 AM 41.6042 -87.5216 197° South  Level FlightAware Approximate
Fri 10:31:01 AM 41.6847 -87.7111 159° South 277 319 8,900  Level Chicago Center
Fri 10:32:00 AM 41.5358 -87.4148 166° South  Level Estimated
Fri 10:32:03 AM 41.6111 -87.6722 158° South 283 326 11,500  Level Chicago Center
Fri 10:33:05 AM 41.5203 -87.6233 158° South 292 336 14,300 2,016 Climbing Chicago Center
Fri 10:34:08 AM 41.4372 -87.5789 158° South 312 359 15,700 1,200 Climbing Chicago Center
Fri 10:35:10 AM 41.3394 -87.5572 171° South 347 399 16,800 1,694 Climbing Chicago Center
Fri 10:36:12 AM 41.2381 -87.5403 173° South 363 418 19,200 2,371 Climbing Chicago Center
Fri 10:37:14 AM 41.1428 -87.5175 170° South 353 406 21,700 2,081 Climbing Chicago Center
Fri 10:38:16 AM 41.0519 -87.4925 168° South 338 389 23,500 1,452 Climbing Chicago Center
Fri 10:39:18 AM 40.9628 -87.4431 157° South 353 406 24,700 1,113 Climbing Chicago Center
Fri 10:40:20 AM 40.8522 -87.3817 157° South 359 413 25,800 1,016 Climbing Chicago Center
Fri 10:41:22 AM 40.7597 -87.3297 157° South 365 420 26,800 968 Climbing Chicago Center
Fri 10:42:24 AM 40.6678 -87.2778 157° South 364 419 27,800 968 Climbing Chicago Center
Fri 10:43:26 AM 40.5747 -87.2281 158° South 361 415 28,800 968 Climbing Chicago Center
Fri 10:44:28 AM 40.4814 -87.1753 157° South 365 420 29,800 968 Climbing Chicago Center
Fri 10:45:30 AM 40.3883 -87.1236 157° South 365 420 30,800 1,016 Climbing Chicago Center
Fri 10:46:32 AM 40.2756 -87.0628 158° South 365 420 31,900 823 Climbing Chicago Center
Fri 10:47:34 AM 40.1808 -87.0111 157° South 370 426 32,500 625 Climbing Chicago Center
Fri 10:48:08 AM 40.1222 -86.9750 155° Southeast 376 433 32,900 632 Climbing Indianapolis Center
Fri 10:49:09 AM 40.0239 -86.9217 157° South 380 437 33,500 585 Climbing Indianapolis Center
Fri 10:50:11 AM 39.9269 -86.8536 152° Southeast 395 455 34,100 629 Climbing Indianapolis Center
Fri 10:51:13 AM 39.8328 -86.7753 147° Southeast 398 458 34,800 677 Climbing Indianapolis Center
Fri 10:52:15 AM 39.7389 -86.6958 147° Southeast 401 461 35,500 683 Climbing Indianapolis Center
Fri 10:53:16 AM 39.6678 -86.5728 127° Southeast 425 489 36,200 683 Climbing Indianapolis Center
Fri 10:54:18 AM 39.6067 -86.4306 119° Southeast 443 510 36,900 387 Climbing Indianapolis Center
Fri 10:55:20 AM 39.5444 -86.2897 120° Southeast 446 513 37,000 49 Climbing Indianapolis Center
Fri 10:56:21 AM 39.4622 -86.1217 122° Southeast 452 520 37,000  Level Indianapolis Center
Fri 10:57:23 AM 39.3817 -85.9914 129° Southeast 458 527 37,000  Level Indianapolis Center
Fri 10:58:25 AM 39.3044 -85.8631 128° Southeast 453 521 37,000  Level Indianapolis Center
Fri 10:59:26 AM 39.2269 -85.7381 129° Southeast 446 513 37,000  Level Indianapolis Center
Fri 11:00:28 AM 39.1472 -85.6103 129° Southeast 453 521 37,000  Level Indianapolis Center
Fri 11:01:30 AM 39.0714 -85.4858 128° Southeast 442 509 37,000  Level Indianapolis Center
Fri 11:02:31 AM 38.9928 -85.3611 129° Southeast 444 511 37,000  Level Indianapolis Center
Fri 11:03:33 AM 38.9156 -85.2372 129° Southeast 443 510 37,000  Level Indianapolis Center
Fri 11:04:35 AM 38.8372 -85.1150 129° Southeast 441 507 37,000  Level Indianapolis Center
Fri 11:05:36 AM 38.7600 -84.9914 129° Southeast 441 507 37,000  Level Indianapolis Center
Fri 11:06:38 AM 38.6678 -84.8472 129° Southeast 442 509 37,000  Level Indianapolis Center
Fri 11:07:39 AM 38.5897 -84.7258 129° Southeast 442 509 37,000  Level Indianapolis Center
Fri 11:08:41 AM 38.5114 -84.6056 130° Southeast 440 506 37,000  Level Indianapolis Center
Fri 11:09:43 AM 38.4325 -84.4833 129° Southeast 442 509 37,000  Level Indianapolis Center
Fri 11:10:44 AM 38.3547 -84.3631 129° Southeast 439 505 37,000  Level Indianapolis Center
Fri 11:11:46 AM 38.2761 -84.2414 129° Southeast 442 509 37,000  Level Indianapolis Center
Fri 11:12:48 AM 38.1964 -84.1189 130° Southeast 446 513 37,000  Level Indianapolis Center
Fri 11:13:49 AM 38.1031 -83.9756 130° Southeast 450 518 37,000 -98 Level Indianapolis Center
Fri 11:14:51 AM 38.0219 -83.8542 130° Southeast 451 519 36,800 -581 Descending Indianapolis Center
Fri 11:15:53 AM 37.9444 -83.7283 128° Southeast 452 520 35,800 -1,268 Descending Indianapolis Center
Fri 11:16:54 AM 37.8686 -83.6178 131° Southeast 426 490 34,200 -1,512 Descending Indianapolis Center
Fri 11:17:56 AM 37.7964 -83.5100 130° Southeast 403 464 32,700 -1,463 Descending Indianapolis Center
Fri 11:18:57 AM 37.7244 -83.4019 130° Southeast 401 461 31,200 -829 Descending Indianapolis Center
Fri 11:19:59 AM 37.6503 -83.2897 130° Southeast 412 474 31,000 -97 Descending Indianapolis Center
Fri 11:21:01 AM 37.5628 -83.1600 130° Southeast 414 476 31,000 -488 Level Indianapolis Center
Fri 11:22:02 AM 37.4847 -83.0444 130° Southeast 426 490 30,000 -1,024 Descending Indianapolis Center
Fri 11:23:04 AM 37.4075 -82.9292 130° Southeast 430 495 28,900 -1,171 Descending Indianapolis Center
Fri 11:24:05 AM 37.3314 -82.8156 130° Southeast 424 488 27,600 -927 Descending Indianapolis Center
Fri 11:25:07 AM 37.2539 -82.7033 131° Southeast 421 484 27,000 -290 Descending Indianapolis Center
Fri 11:26:09 AM 37.1778 -82.5900 130° Southeast 420 483 27,000  Level Indianapolis Center
Fri 11:27:10 AM 37.0989 -82.4767 131° Southeast 426 490 27,000  Level Indianapolis Center
Fri 11:28:05 AM 37.0186 -82.3594 131° Southeast 433 498 27,000  Level Atlanta Center
Fri 11:29:05 AM 36.9375 -82.2417 131° Southeast 441 507 27,000 -200 Level Atlanta Center
Fri 11:30:05 AM 36.8589 -82.1267 130° Southeast 441 507 26,600 -550 Descending Atlanta Center
Fri 11:31:05 AM 36.7817 -82.0067 129° Southeast 441 507 25,900 -650 Descending Atlanta Center
Fri 11:32:05 AM 36.7153 -81.8997 128° Southeast 441 507 25,300 -800 Descending Atlanta Center
Fri 11:33:05 AM 36.6422 -81.7775 127° Southeast 441 507 24,300 -1,100 Descending Atlanta Center
Fri 11:34:05 AM 36.5669 -81.6581 128° Southeast 441 507 23,100 -1,350 Descending Atlanta Center
Fri 11:35:05 AM 36.4914 -81.5314 127° Southeast 430 495 21,600 -1,500 Descending Atlanta Center
Fri 11:36:05 AM 36.4222 -81.4147 126° Southeast 423 487 20,100 -1,500 Descending Atlanta Center
Fri 11:37:05 AM 36.3575 -81.3136 128° Southeast 423 487 18,600 -1,650 Descending Atlanta Center
Fri 11:38:05 AM 36.2903 -81.2028 127° Southeast 418 481 16,800 -1,750 Descending Atlanta Center
Fri 11:39:05 AM 36.2275 -81.0969 126° Southeast 399 459 15,100 -1,700 Descending Atlanta Center
Fri 11:40:05 AM 36.1728 -80.9908 123° Southeast 370 426 13,400 -1,750 Descending Atlanta Center
Fri 11:41:05 AM 36.1547 -80.8553 99° East 383 441 11,600 -1,200 Descending Atlanta Center
Fri 11:42:05 AM 36.1364 -80.7119 99° East 393 452 11,000 -300 Descending Atlanta Center
Fri 11:43:05 AM 36.1200 -80.5814 99° East 383 441 11,000 -100 Level Atlanta Center
Fri 11:44:05 AM 36.1039 -80.4511 99° East 383 441 10,800 -600 Descending Atlanta Center
Fri 11:45:05 AM 36.0900 -80.3361 98° East 366 421 9,800 -1,200 Descending Atlanta Center
Fri 11:46:05 AM 36.0786 -80.2314 98° East 335 386 8,400 -1,250 Descending Atlanta Center
Fri 11:47:05 AM 36.0736 -80.1392 94° East 311 358 7,300 -700 Descending Atlanta Center
Fri 11:48:05 AM 36.1336 -80.0592 47° Northeast 274 315 7,000 -300 Descending Atlanta Center
Fri 11:50:00 AM 36.1000 -79.9333 28° Northeast  Level FlightAware Approximate
Fri 11:57:00 AM 36.1013 -79.9411 28° Northeast  Level Estimated
Fri 11:58:00 AM 36.1000 -79.9333 28° Northeast  Level FlightAware Approximate

Login

Don't have an account? Register now (free) for customized features, flight alerts, and more!